KLM1825 EGLL-EDDF
Flight info
| Callsign | KLM1825 |
|---|---|
| Flight time | 1h 16m |
| Altitude | 22000 |
| Route | BPK6J BPK Q295 MATCH DCT REDFA DCT TACHA DCT NOLRU DCT DIXAT DIXAT1A |
| Aircraft | A333/H-V/N |
Departure
| Time | 2026-05-04 22:19 |
|---|---|
| Airport | London Heathrow Airport (EGLL) |
Arrival
| Time | 2026-05-04 23:36 |
|---|---|
| Airport | Frankfurt Main Airport (EDDF) |
| Time | Latitude | Longitude | Altitude | Speed | Heading |
|---|---|---|---|---|---|
| 2026-05-04 21:50 | 51.45790 | -0.44953 | 139 ft | 0 kts | 334° |
| 2026-05-04 22:02 | 51.45773 | -0.44938 | 92 ft | 4 kts | 323° |
| 2026-05-04 22:03 | 51.45754 | -0.44909 | 91 ft | 4 kts | 304° |
| 2026-05-04 22:03 | 51.45742 | -0.44872 | 92 ft | 4 kts | 283° |
| 2026-05-04 22:03 | 51.45740 | -0.44831 | 91 ft | 4 kts | 250° |
| 2026-05-04 22:03 | 51.45743 | -0.44820 | 91 ft | 4 kts | 240° |
| 2026-05-04 22:08 | 51.45731 | -0.44852 | 92 ft | 7 kts | 240° |
| 2026-05-04 22:08 | 51.45702 | -0.44935 | 93 ft | 10 kts | 240° |
| 2026-05-04 22:08 | 51.45679 | -0.45047 | 93 ft | 11 kts | 261° |
| 2026-05-04 22:08 | 51.45682 | -0.45179 | 93 ft | 12 kts | 282° |
| 2026-05-04 22:09 | 51.45725 | -0.45294 | 93 ft | 6 kts | 320° |
| 2026-05-04 22:09 | 51.45726 | -0.45295 | 93 ft | 0 kts | 321° |
| 2026-05-04 22:09 | 51.45740 | -0.45310 | 94 ft | 8 kts | 328° |
| 2026-05-04 22:09 | 51.45817 | -0.45331 | 91 ft | 13 kts | 1° |
| 2026-05-04 22:10 | 51.45911 | -0.45327 | 90 ft | 15 kts | 1° |
| 2026-05-04 22:10 | 51.46019 | -0.45326 | 92 ft | 16 kts | 360° |
| 2026-05-04 22:10 | 51.46128 | -0.45384 | 94 ft | 17 kts | 329° |
| 2026-05-04 22:10 | 51.46228 | -0.45497 | 94 ft | 18 kts | 325° |
| 2026-05-04 22:11 | 51.46313 | -0.45631 | 92 ft | 17 kts | 292° |
| 2026-05-04 22:11 | 51.46326 | -0.45827 | 93 ft | 18 kts | 269° |
| 2026-05-04 22:11 | 51.46324 | -0.46040 | 90 ft | 20 kts | 270° |
| 2026-05-04 22:11 | 51.46323 | -0.46266 | 91 ft | 21 kts | 270° |
| 2026-05-04 22:12 | 51.46323 | -0.46499 | 90 ft | 21 kts | 270° |
| 2026-05-04 22:12 | 51.46323 | -0.46731 | 90 ft | 18 kts | 271° |
| 2026-05-04 22:12 | 51.46325 | -0.46941 | 94 ft | 19 kts | 271° |
| 2026-05-04 22:12 | 51.46322 | -0.47156 | 90 ft | 20 kts | 268° |
| 2026-05-04 22:13 | 51.46331 | -0.47377 | 93 ft | 20 kts | 281° |
| 2026-05-04 22:13 | 51.46341 | -0.47603 | 93 ft | 20 kts | 263° |
| 2026-05-04 22:13 | 51.46292 | -0.47767 | 90 ft | 16 kts | 239° |
| 2026-05-04 22:13 | 51.46253 | -0.47942 | 92 ft | 17 kts | 265° |
| 2026-05-04 22:14 | 51.46251 | -0.48145 | 90 ft | 22 kts | 270° |
| 2026-05-04 22:14 | 51.46250 | -0.48406 | 85 ft | 23 kts | 270° |
| 2026-05-04 22:14 | 51.46259 | -0.48592 | 90 ft | 11 kts | 286° |
| 2026-05-04 22:14 | 51.46279 | -0.48659 | 91 ft | 0 kts | 301° |
| 2026-05-04 22:15 | 51.46281 | -0.48665 | 91 ft | 0 kts | 301° |
| 2026-05-04 22:17 | 51.46281 | -0.48666 | 80 ft | 1 kts | 302° |
| 2026-05-04 22:17 | 51.46324 | -0.48720 | 89 ft | 11 kts | 333° |
| 2026-05-04 22:17 | 51.46394 | -0.48747 | 92 ft | 9 kts | 353° |
| 2026-05-04 22:17 | 51.46454 | -0.48720 | 95 ft | 10 kts | 44° |
| 2026-05-04 22:18 | 51.46478 | -0.48603 | 94 ft | 12 kts | 86° |
| 2026-05-04 22:18 | 51.46478 | -0.48543 | 92 ft | 0 kts | 90° |
| 2026-05-04 22:18 | 51.46478 | -0.48431 | 91 ft | 37 kts | 90° |
| 2026-05-04 22:18 | 51.46480 | -0.47634 | 87 ft | 103 kts | 89° |
| 2026-05-04 22:19 | 51.46486 | -0.46179 | 94 ft | 156 kts | 90° |
| 2026-05-04 22:19 | 51.46498 | -0.44245 | 332 ft | 184 kts | 88° |
| 2026-05-04 22:19 | 51.46530 | -0.42115 | 818 ft | 201 kts | 88° |
| 2026-05-04 22:19 | 51.46584 | -0.39757 | 1364 ft | 224 kts | 87° |
| 2026-05-04 22:20 | 51.46663 | -0.37127 | 1985 ft | 245 kts | 86° |
| 2026-05-04 22:20 | 51.46769 | -0.34340 | 2681 ft | 254 kts | 85° |
| 2026-05-04 22:20 | 51.46901 | -0.31494 | 3408 ft | 262 kts | 85° |
| 2026-05-04 22:20 | 51.47063 | -0.28549 | 4172 ft | 269 kts | 84° |
| 2026-05-04 22:21 | 51.47292 | -0.25537 | 4975 ft | 272 kts | 82° |
| 2026-05-04 22:21 | 51.47583 | -0.22548 | 5721 ft | 271 kts | 81° |
| 2026-05-04 22:21 | 51.47885 | -0.19607 | 6724 ft | 267 kts | 81° |
| 2026-05-04 22:21 | 51.48193 | -0.16690 | 7804 ft | 261 kts | 81° |
| 2026-05-04 22:22 | 51.48498 | -0.13857 | 8932 ft | 253 kts | 81° |
| 2026-05-04 22:22 | 51.48797 | -0.11134 | 10051 ft | 241 kts | 81° |
| 2026-05-04 22:22 | 51.48990 | -0.09413 | 10743 ft | 232 kts | 81° |
| 2026-05-04 22:22 | 51.49277 | -0.06924 | 11638 ft | 225 kts | 81° |
| 2026-05-04 22:23 | 51.49541 | -0.04399 | 12169 ft | 234 kts | 88° |
| 2026-05-04 22:23 | 51.49758 | -0.01722 | 12452 ft | 256 kts | 71° |
| 2026-05-04 22:23 | 51.50831 | 0.00676 | 12709 ft | 280 kts | 38° |
| 2026-05-04 22:23 | 51.52569 | 0.02300 | 13014 ft | 300 kts | 23° |
| 2026-05-04 22:24 | 51.54576 | 0.03591 | 13323 ft | 320 kts | 20° |
| 2026-05-04 22:24 | 51.56722 | 0.04948 | 13644 ft | 340 kts | 22° |
| 2026-05-04 22:24 | 51.58934 | 0.06550 | 13935 ft | 358 kts | 25° |
| 2026-05-04 22:24 | 51.61194 | 0.08432 | 14196 ft | 375 kts | 28° |
| 2026-05-04 22:25 | 51.63506 | 0.10562 | 14496 ft | 389 kts | 30° |
| 2026-05-04 22:25 | 51.65820 | 0.12822 | 14852 ft | 397 kts | 31° |
| 2026-05-04 22:25 | 51.68105 | 0.15091 | 14963 ft | 398 kts | 30° |
| 2026-05-04 22:25 | 51.70474 | 0.17397 | 14985 ft | 398 kts | 30° |
| 2026-05-04 22:26 | 51.72846 | 0.19709 | 14984 ft | 399 kts | 31° |
| 2026-05-04 22:26 | 51.75079 | 0.22390 | 15040 ft | 401 kts | 40° |
| 2026-05-04 22:26 | 51.77006 | 0.25680 | 15502 ft | 404 kts | 49° |
| 2026-05-04 22:26 | 51.78577 | 0.29435 | 16066 ft | 406 kts | 59° |
| 2026-05-04 22:27 | 51.79735 | 0.33604 | 16698 ft | 406 kts | 66° |
| 2026-05-04 22:27 | 51.80673 | 0.37924 | 17252 ft | 408 kts | 70° |
| 2026-05-04 22:27 | 51.81461 | 0.42272 | 17730 ft | 413 kts | 73° |
| 2026-05-04 22:27 | 51.82191 | 0.46820 | 18229 ft | 416 kts | 74° |
| 2026-05-04 22:28 | 51.82883 | 0.51392 | 18651 ft | 420 kts | 74° |
| 2026-05-04 22:28 | 51.83574 | 0.56011 | 19070 ft | 423 kts | 74° |
| 2026-05-04 22:28 | 51.84273 | 0.60657 | 19516 ft | 426 kts | 74° |
| 2026-05-04 22:28 | 51.84986 | 0.65333 | 19951 ft | 429 kts | 74° |
| 2026-05-04 22:29 | 51.85702 | 0.69972 | 20364 ft | 431 kts | 74° |
| 2026-05-04 22:29 | 51.86436 | 0.74690 | 20787 ft | 434 kts | 74° |
| 2026-05-04 22:29 | 51.87176 | 0.79437 | 21206 ft | 436 kts | 74° |
| 2026-05-04 22:29 | 51.87920 | 0.84219 | 21605 ft | 439 kts | 74° |
| 2026-05-04 22:30 | 51.88668 | 0.89035 | 22008 ft | 441 kts | 74° |
| 2026-05-04 22:30 | 51.89415 | 0.93866 | 22399 ft | 444 kts | 74° |
| 2026-05-04 22:30 | 51.90167 | 0.98735 | 22755 ft | 447 kts | 74° |
| 2026-05-04 22:30 | 51.90926 | 1.03660 | 23030 ft | 451 kts | 74° |
| 2026-05-04 22:31 | 51.91676 | 1.08564 | 23389 ft | 454 kts | 74° |
| 2026-05-04 22:31 | 51.92439 | 1.13573 | 23720 ft | 457 kts | 74° |
| 2026-05-04 22:31 | 51.93202 | 1.18590 | 23997 ft | 460 kts | 75° |
| 2026-05-04 22:31 | 51.93969 | 1.23653 | 24277 ft | 463 kts | 75° |
| 2026-05-04 22:32 | 51.94730 | 1.28695 | 24549 ft | 466 kts | 75° |
| 2026-05-04 22:32 | 51.95501 | 1.33821 | 24817 ft | 468 kts | 75° |
| 2026-05-04 22:32 | 51.96274 | 1.38972 | 25079 ft | 471 kts | 75° |
| 2026-05-04 22:32 | 51.97049 | 1.44155 | 25339 ft | 474 kts | 75° |
| 2026-05-04 22:33 | 51.97827 | 1.49366 | 25541 ft | 478 kts | 76° |
| 2026-05-04 22:33 | 51.98604 | 1.54586 | 25671 ft | 483 kts | 76° |
| 2026-05-04 22:33 | 51.99390 | 1.59915 | 25946 ft | 485 kts | 76° |
| 2026-05-04 22:33 | 52.00176 | 1.65250 | 26207 ft | 488 kts | 76° |
| 2026-05-04 22:34 | 52.00966 | 1.70624 | 26448 ft | 490 kts | 76° |
| 2026-05-04 22:34 | 52.01758 | 1.76032 | 26692 ft | 493 kts | 77° |
| 2026-05-04 22:34 | 52.02552 | 1.81471 | 26931 ft | 495 kts | 77° |
| 2026-05-04 22:34 | 52.03336 | 1.86860 | 27178 ft | 498 kts | 77° |
| 2026-05-04 22:35 | 52.04128 | 1.92342 | 27450 ft | 499 kts | 77° |
| 2026-05-04 22:35 | 52.04927 | 1.97867 | 27622 ft | 502 kts | 77° |
| 2026-05-04 22:35 | 52.05732 | 2.03436 | 27682 ft | 508 kts | 77° |
| 2026-05-04 22:35 | 52.06534 | 2.09037 | 27909 ft | 511 kts | 77° |
| 2026-05-04 22:36 | 52.07341 | 2.14698 | 28154 ft | 512 kts | 78° |
| 2026-05-04 22:36 | 52.08146 | 2.20353 | 28369 ft | 515 kts | 78° |
| 2026-05-04 22:36 | 52.08948 | 2.26004 | 28580 ft | 517 kts | 78° |
| 2026-05-04 22:36 | 52.09757 | 2.31729 | 28787 ft | 519 kts | 78° |
| 2026-05-04 22:37 | 52.10568 | 2.37486 | 28983 ft | 521 kts | 78° |
| 2026-05-04 22:37 | 52.11370 | 2.43201 | 29189 ft | 523 kts | 78° |
| 2026-05-04 22:37 | 52.12194 | 2.48995 | 29345 ft | 527 kts | 77° |
| 2026-05-04 22:37 | 52.13167 | 2.54792 | 29495 ft | 532 kts | 75° |
| 2026-05-04 22:38 | 52.14245 | 2.60525 | 29664 ft | 535 kts | 73° |
| 2026-05-04 22:38 | 52.15380 | 2.66304 | 29852 ft | 537 kts | 73° |
| 2026-05-04 22:38 | 52.16527 | 2.72101 | 30044 ft | 539 kts | 73° |
| 2026-05-04 22:38 | 52.17672 | 2.77942 | 30223 ft | 540 kts | 73° |
| 2026-05-04 22:39 | 52.18793 | 2.83755 | 30556 ft | 537 kts | 73° |
| 2026-05-04 22:39 | 52.19901 | 2.89571 | 30929 ft | 533 kts | 73° |
| 2026-05-04 22:39 | 52.20994 | 2.95345 | 31287 ft | 530 kts | 72° |
| 2026-05-04 22:39 | 52.22068 | 3.01044 | 30859 ft | 529 kts | 71° |
| 2026-05-04 22:40 | 52.23162 | 3.06679 | 32003 ft | 515 kts | 69° |
| 2026-05-04 22:40 | 52.24427 | 3.12096 | 32622 ft | 507 kts | 64° |
| 2026-05-04 22:40 | 52.25892 | 3.17271 | 33252 ft | 498 kts | 59° |
| 2026-05-04 22:40 | 52.27546 | 3.22181 | 33821 ft | 490 kts | 55° |
| 2026-05-04 22:41 | 52.29330 | 3.26812 | 34260 ft | 483 kts | 55° |
| 2026-05-04 22:41 | 52.30801 | 3.31703 | 34659 ft | 476 kts | 66° |
| 2026-05-04 22:41 | 52.31692 | 3.36929 | 33841 ft | 479 kts | 77° |
| 2026-05-04 22:41 | 52.31938 | 3.42345 | 34593 ft | 479 kts | 89° |
| 2026-05-04 22:42 | 52.31679 | 3.47829 | 34367 ft | 487 kts | 96° |
| 2026-05-04 22:42 | 52.31136 | 3.53330 | 34245 ft | 493 kts | 99° |
| 2026-05-04 22:42 | 52.30444 | 3.58844 | 34205 ft | 497 kts | 101° |
| 2026-05-04 22:43 | 52.28857 | 3.69913 | 34339 ft | 501 kts | 102° |
| 2026-05-04 22:43 | 52.28024 | 3.75367 | 34480 ft | 501 kts | 103° |
| 2026-05-04 22:43 | 52.27139 | 3.80918 | 34739 ft | 497 kts | 104° |
| 2026-05-04 22:43 | 52.26249 | 3.86357 | 34952 ft | 495 kts | 104° |
| 2026-05-04 22:44 | 52.25345 | 3.91802 | 34988 ft | 497 kts | 104° |
| 2026-05-04 22:44 | 52.23522 | 4.02645 | 34989 ft | 499 kts | 104° |
| 2026-05-04 22:45 | 52.21672 | 4.13570 | 34983 ft | 500 kts | 104° |
| 2026-05-04 22:45 | 52.18922 | 4.29912 | 34981 ft | 499 kts | 104° |
| 2026-05-04 22:46 | 52.17103 | 4.40833 | 34981 ft | 499 kts | 104° |
| 2026-05-04 22:46 | 52.15284 | 4.51762 | 34978 ft | 499 kts | 104° |
| 2026-05-04 22:47 | 52.13477 | 4.62603 | 34979 ft | 499 kts | 104° |
| 2026-05-04 22:47 | 52.11655 | 4.73503 | 34985 ft | 499 kts | 104° |
| 2026-05-04 22:48 | 52.09750 | 4.84352 | 34973 ft | 497 kts | 111° |
| 2026-05-04 22:48 | 52.08239 | 4.89367 | 34983 ft | 492 kts | 122° |
| 2026-05-04 22:48 | 52.06219 | 4.93830 | 34984 ft | 488 kts | 131° |
| 2026-05-04 22:49 | 52.01465 | 5.01535 | 34981 ft | 479 kts | 139° |
| 2026-05-04 22:49 | 51.96420 | 5.08480 | 34978 ft | 475 kts | 141° |
| 2026-05-04 22:50 | 51.91277 | 5.15203 | 34971 ft | 472 kts | 142° |
| 2026-05-04 22:50 | 51.86163 | 5.21820 | 34975 ft | 469 kts | 142° |
| 2026-05-04 22:51 | 51.81090 | 5.28356 | 34978 ft | 468 kts | 143° |
| 2026-05-04 22:51 | 51.75974 | 5.34930 | 34963 ft | 468 kts | 143° |
| 2026-05-04 22:52 | 51.70862 | 5.41487 | 34979 ft | 468 kts | 143° |
| 2026-05-04 22:52 | 51.65792 | 5.47985 | 34984 ft | 467 kts | 143° |
| 2026-05-04 22:53 | 51.60710 | 5.54514 | 34986 ft | 466 kts | 143° |
| 2026-05-04 22:53 | 51.55644 | 5.61019 | 34988 ft | 466 kts | 143° |
| 2026-05-04 22:54 | 51.50580 | 5.67513 | 34987 ft | 466 kts | 143° |
| 2026-05-04 22:54 | 51.45507 | 5.74008 | 34986 ft | 466 kts | 143° |
| 2026-05-04 22:55 | 51.40468 | 5.80449 | 34976 ft | 465 kts | 143° |
| 2026-05-04 22:55 | 51.35416 | 5.86890 | 34981 ft | 465 kts | 143° |
| 2026-05-04 22:56 | 51.30334 | 5.93355 | 34982 ft | 465 kts | 143° |
| 2026-05-04 22:56 | 51.25301 | 5.99747 | 34983 ft | 465 kts | 143° |
| 2026-05-04 22:57 | 51.20236 | 6.06166 | 34986 ft | 465 kts | 143° |
| 2026-05-04 22:57 | 51.15215 | 6.12765 | 35009 ft | 468 kts | 135° |
| 2026-05-04 22:58 | 51.11412 | 6.21148 | 34968 ft | 475 kts | 120° |
| 2026-05-04 22:58 | 51.08172 | 6.30434 | 34993 ft | 481 kts | 119° |
| 2026-05-04 22:59 | 51.04979 | 6.39738 | 34991 ft | 482 kts | 119° |
| 2026-05-04 22:59 | 51.01831 | 6.49163 | 34982 ft | 482 kts | 115° |
| 2026-05-04 23:00 | 51.00297 | 6.53914 | 34867 ft | 484 kts | 115° |
| 2026-05-04 23:00 | 50.98734 | 6.58665 | 34416 ft | 485 kts | 116° |
| 2026-05-04 23:00 | 50.97146 | 6.63377 | 34072 ft | 486 kts | 116° |
| 2026-05-04 23:00 | 50.95530 | 6.68119 | 33994 ft | 488 kts | 116° |
| 2026-05-04 23:01 | 50.92299 | 6.77530 | 34116 ft | 487 kts | 116° |
| 2026-05-04 23:01 | 50.90769 | 6.82317 | 34372 ft | 487 kts | 108° |
| 2026-05-04 23:01 | 50.89916 | 6.87499 | 34777 ft | 483 kts | 100° |
| 2026-05-04 23:02 | 50.89247 | 6.92710 | 34985 ft | 482 kts | 95° |
| 2026-05-04 23:02 | 50.88987 | 6.97996 | 35008 ft | 488 kts | 85° |
| 2026-05-04 23:02 | 50.89359 | 7.03398 | 35000 ft | 494 kts | 72° |
| 2026-05-04 23:02 | 50.90491 | 7.08535 | 34988 ft | 495 kts | 57° |
| 2026-05-04 23:03 | 50.92363 | 7.13095 | 34986 ft | 495 kts | 42° |
| 2026-05-04 23:03 | 50.94766 | 7.16948 | 34954 ft | 496 kts | 36° |
| 2026-05-04 23:03 | 50.99117 | 7.25435 | 34986 ft | 497 kts | 53° |
| 2026-05-04 23:04 | 51.01796 | 7.35468 | 35000 ft | 494 kts | 71° |
| 2026-05-04 23:04 | 51.02625 | 7.46232 | 34882 ft | 491 kts | 88° |
| 2026-05-04 23:05 | 51.02394 | 7.51630 | 34104 ft | 485 kts | 95° |
| 2026-05-04 23:05 | 51.01761 | 7.56859 | 32485 ft | 478 kts | 103° |
| 2026-05-04 23:05 | 51.00714 | 7.61875 | 30657 ft | 477 kts | 110° |
| 2026-05-04 23:05 | 50.99277 | 7.66522 | 28786 ft | 474 kts | 120° |
| 2026-05-04 23:06 | 50.97402 | 7.70785 | 26977 ft | 467 kts | 130° |
| 2026-05-04 23:06 | 50.95151 | 7.74403 | 25446 ft | 454 kts | 140° |
| 2026-05-04 23:06 | 50.92623 | 7.77258 | 24044 ft | 439 kts | 150° |
| 2026-05-04 23:06 | 50.89897 | 7.79270 | 22592 ft | 424 kts | 161° |
| 2026-05-04 23:07 | 50.87105 | 7.80286 | 21651 ft | 400 kts | 172° |
| 2026-05-04 23:07 | 50.85298 | 7.80481 | 20899 ft | 387 kts | 178° |
| 2026-05-04 23:07 | 50.82639 | 7.80139 | 19294 ft | 383 kts | 187° |
| 2026-05-04 23:07 | 50.80032 | 7.79256 | 17730 ft | 382 kts | 190° |
| 2026-05-04 23:08 | 50.76682 | 7.77990 | 16662 ft | 359 kts | 189° |
| 2026-05-04 23:08 | 50.75034 | 7.77460 | 16514 ft | 358 kts | 183° |
| 2026-05-04 23:08 | 50.72576 | 7.77562 | 16247 ft | 357 kts | 168° |
| 2026-05-04 23:08 | 50.70086 | 7.78113 | 15969 ft | 364 kts | 169° |
| 2026-05-04 23:09 | 50.67561 | 7.78654 | 15734 ft | 367 kts | 170° |
| 2026-05-04 23:09 | 50.65361 | 7.79091 | 15523 ft | 364 kts | 170° |
| 2026-05-04 23:09 | 50.62768 | 7.79601 | 15255 ft | 361 kts | 170° |
| 2026-05-04 23:09 | 50.60273 | 7.80098 | 14988 ft | 360 kts | 169° |
| 2026-05-04 23:10 | 50.57820 | 7.80587 | 14747 ft | 359 kts | 169° |
| 2026-05-04 23:10 | 50.55327 | 7.81083 | 14502 ft | 357 kts | 169° |
| 2026-05-04 23:10 | 50.52892 | 7.81576 | 14174 ft | 347 kts | 168° |
| 2026-05-04 23:10 | 50.50520 | 7.82086 | 13731 ft | 341 kts | 168° |
| 2026-05-04 23:11 | 50.48221 | 7.82576 | 13268 ft | 333 kts | 168° |
| 2026-05-04 23:11 | 50.45934 | 7.83060 | 12853 ft | 329 kts | 167° |
| 2026-05-04 23:11 | 50.43728 | 7.83963 | 12461 ft | 328 kts | 153° |
| 2026-05-04 23:11 | 50.41779 | 7.85824 | 11970 ft | 328 kts | 139° |
| 2026-05-04 23:12 | 50.39971 | 7.88063 | 11541 ft | 333 kts | 137° |
| 2026-05-04 23:12 | 50.38161 | 7.90379 | 11133 ft | 336 kts | 137° |
| 2026-05-04 23:12 | 50.36373 | 7.92643 | 10701 ft | 332 kts | 137° |
| 2026-05-04 23:12 | 50.34599 | 7.94849 | 10547 ft | 311 kts | 138° |
| 2026-05-04 23:13 | 50.32969 | 7.96823 | 10453 ft | 281 kts | 139° |
| 2026-05-04 23:13 | 50.31457 | 7.98608 | 10346 ft | 268 kts | 139° |
| 2026-05-04 23:13 | 50.29973 | 8.00375 | 10243 ft | 271 kts | 139° |
| 2026-05-04 23:13 | 50.28472 | 8.02192 | 10119 ft | 272 kts | 139° |
| 2026-05-04 23:14 | 50.26978 | 8.04079 | 10051 ft | 283 kts | 133° |
| 2026-05-04 23:14 | 50.25660 | 8.06391 | 10009 ft | 292 kts | 124° |
| 2026-05-04 23:14 | 50.24419 | 8.08945 | 10001 ft | 296 kts | 123° |
| 2026-05-04 23:14 | 50.23195 | 8.11510 | 10000 ft | 297 kts | 123° |
| 2026-05-04 23:15 | 50.21949 | 8.14101 | 9986 ft | 297 kts | 123° |
| 2026-05-04 23:15 | 50.20699 | 8.16672 | 9989 ft | 297 kts | 123° |
| 2026-05-04 23:15 | 50.19445 | 8.19229 | 9986 ft | 297 kts | 124° |
| 2026-05-04 23:15 | 50.18201 | 8.21755 | 9985 ft | 297 kts | 124° |
| 2026-05-04 23:16 | 50.16940 | 8.24309 | 9989 ft | 297 kts | 124° |
| 2026-05-04 23:16 | 50.15669 | 8.26878 | 9978 ft | 297 kts | 124° |
| 2026-05-04 23:16 | 50.14417 | 8.29404 | 9978 ft | 298 kts | 124° |
| 2026-05-04 23:16 | 50.13147 | 8.31970 | 9982 ft | 298 kts | 124° |
| 2026-05-04 23:17 | 50.11881 | 8.34529 | 9996 ft | 298 kts | 122° |
| 2026-05-04 23:17 | 50.10926 | 8.37371 | 9898 ft | 295 kts | 100° |
| 2026-05-04 23:17 | 50.10896 | 8.40524 | 9623 ft | 292 kts | 71° |
| 2026-05-04 23:17 | 50.11526 | 8.43520 | 9322 ft | 299 kts | 62° |
| 2026-05-04 23:18 | 50.12317 | 8.46567 | 9047 ft | 305 kts | 61° |
| 2026-05-04 23:18 | 50.13113 | 8.49635 | 8798 ft | 305 kts | 62° |
| 2026-05-04 23:18 | 50.13890 | 8.52716 | 8532 ft | 303 kts | 62° |
| 2026-05-04 23:18 | 50.14641 | 8.55771 | 8273 ft | 301 kts | 63° |
| 2026-05-04 23:19 | 50.15384 | 8.58836 | 8020 ft | 300 kts | 63° |
| 2026-05-04 23:19 | 50.16113 | 8.61868 | 7770 ft | 298 kts | 63° |
| 2026-05-04 23:19 | 50.16830 | 8.64866 | 7510 ft | 297 kts | 63° |
| 2026-05-04 23:19 | 50.17548 | 8.67883 | 7276 ft | 296 kts | 63° |
| 2026-05-04 23:20 | 50.18271 | 8.70883 | 7023 ft | 294 kts | 60° |
| 2026-05-04 23:20 | 50.19018 | 8.73859 | 6774 ft | 294 kts | 60° |
| 2026-05-04 23:20 | 50.19756 | 8.76822 | 6515 ft | 293 kts | 61° |
| 2026-05-04 23:20 | 50.20479 | 8.79794 | 6294 ft | 291 kts | 61° |
| 2026-05-04 23:21 | 50.21180 | 8.82717 | 6033 ft | 290 kts | 62° |
| 2026-05-04 23:21 | 50.21878 | 8.85666 | 5780 ft | 288 kts | 62° |
| 2026-05-04 23:21 | 50.22568 | 8.88591 | 5535 ft | 287 kts | 62° |
| 2026-05-04 23:21 | 50.23256 | 8.91516 | 5308 ft | 286 kts | 62° |
| 2026-05-04 23:22 | 50.23937 | 8.94432 | 5174 ft | 285 kts | 62° |
| 2026-05-04 23:22 | 50.24616 | 8.97329 | 5073 ft | 284 kts | 62° |
| 2026-05-04 23:22 | 50.25295 | 9.00239 | 5067 ft | 284 kts | 62° |
| 2026-05-04 23:22 | 50.25968 | 9.03119 | 5062 ft | 284 kts | 62° |
| 2026-05-04 23:23 | 50.26647 | 9.06026 | 5056 ft | 284 kts | 62° |
| 2026-05-04 23:23 | 50.27324 | 9.08935 | 5065 ft | 284 kts | 62° |
| 2026-05-04 23:23 | 50.27935 | 9.11870 | 5048 ft | 287 kts | 70° |
| 2026-05-04 23:23 | 50.28187 | 9.14997 | 5057 ft | 289 kts | 82° |
| 2026-05-04 23:24 | 50.28026 | 9.18125 | 5060 ft | 288 kts | 94° |
| 2026-05-04 23:24 | 50.27467 | 9.21106 | 5064 ft | 286 kts | 106° |
| 2026-05-04 23:24 | 50.26558 | 9.23812 | 5064 ft | 284 kts | 116° |
| 2026-05-04 23:24 | 50.25431 | 9.26326 | 5069 ft | 280 kts | 120° |
| 2026-05-04 23:25 | 50.24241 | 9.28718 | 5064 ft | 277 kts | 122° |
| 2026-05-04 23:25 | 50.23027 | 9.31062 | 5066 ft | 276 kts | 123° |
| 2026-05-04 23:25 | 50.21752 | 9.33312 | 5045 ft | 278 kts | 131° |
| 2026-05-04 23:25 | 50.20208 | 9.35142 | 5051 ft | 279 kts | 143° |
| 2026-05-04 23:26 | 50.18462 | 9.36407 | 5064 ft | 275 kts | 156° |
| 2026-05-04 23:26 | 50.16590 | 9.37040 | 5067 ft | 275 kts | 168° |
| 2026-05-04 23:26 | 50.14706 | 9.37016 | 5064 ft | 274 kts | 181° |
| 2026-05-04 23:26 | 50.12864 | 9.36350 | 5060 ft | 271 kts | 193° |
| 2026-05-04 23:27 | 50.11176 | 9.35065 | 5063 ft | 271 kts | 206° |
| 2026-05-04 23:27 | 50.09713 | 9.33240 | 5058 ft | 269 kts | 218° |
| 2026-05-04 23:27 | 50.08542 | 9.30943 | 5065 ft | 271 kts | 230° |
| 2026-05-04 23:27 | 50.07715 | 9.28312 | 5064 ft | 270 kts | 242° |
| 2026-05-04 23:28 | 50.07253 | 9.25471 | 5074 ft | 270 kts | 251° |
| 2026-05-04 23:28 | 50.07011 | 9.22615 | 5073 ft | 267 kts | 255° |
| 2026-05-04 23:28 | 50.06864 | 9.19743 | 5064 ft | 266 kts | 257° |
| 2026-05-04 23:28 | 50.06762 | 9.16859 | 5064 ft | 265 kts | 258° |
| 2026-05-04 23:29 | 50.06744 | 9.13996 | 5067 ft | 267 kts | 261° |
| 2026-05-04 23:29 | 50.06795 | 9.11090 | 5064 ft | 266 kts | 262° |
| 2026-05-04 23:29 | 50.06877 | 9.08215 | 5062 ft | 265 kts | 263° |
| 2026-05-04 23:29 | 50.06970 | 9.05349 | 5051 ft | 265 kts | 263° |
| 2026-05-04 23:30 | 50.07067 | 9.02477 | 5061 ft | 265 kts | 263° |
| 2026-05-04 23:30 | 50.07162 | 8.99649 | 5057 ft | 265 kts | 263° |
| 2026-05-04 23:30 | 50.07258 | 8.96773 | 5054 ft | 265 kts | 263° |
| 2026-05-04 23:30 | 50.07467 | 8.93894 | 5048 ft | 271 kts | 272° |
| 2026-05-04 23:31 | 50.08062 | 8.91078 | 4991 ft | 275 kts | 284° |
| 2026-05-04 23:31 | 50.08929 | 8.88421 | 4626 ft | 273 kts | 289° |
| 2026-05-04 23:31 | 50.09731 | 8.85856 | 4175 ft | 257 kts | 271° |
| 2026-05-04 23:31 | 50.09646 | 8.83193 | 3685 ft | 238 kts | 248° |
| 2026-05-04 23:32 | 50.09161 | 8.80842 | 3296 ft | 219 kts | 240° |
| 2026-05-04 23:32 | 50.08650 | 8.78697 | 3006 ft | 203 kts | 241° |
| 2026-05-04 23:32 | 50.08209 | 8.76698 | 2792 ft | 188 kts | 241° |
| 2026-05-04 23:32 | 50.07807 | 8.74868 | 2522 ft | 170 kts | 240° |
| 2026-05-04 23:33 | 50.07433 | 8.73261 | 2340 ft | 150 kts | 239° |
| 2026-05-04 23:33 | 50.07093 | 8.71810 | 2137 ft | 137 kts | 239° |
| 2026-05-04 23:33 | 50.06762 | 8.70433 | 1968 ft | 136 kts | 238° |
| 2026-05-04 23:33 | 50.06429 | 8.69033 | 1785 ft | 138 kts | 239° |
| 2026-05-04 23:34 | 50.06098 | 8.67623 | 1614 ft | 139 kts | 239° |
| 2026-05-04 23:34 | 50.05769 | 8.66225 | 1421 ft | 138 kts | 238° |
| 2026-05-04 23:34 | 50.05432 | 8.64829 | 1261 ft | 138 kts | 239° |
| 2026-05-04 23:34 | 50.05126 | 8.63391 | 1035 ft | 141 kts | 252° |
| 2026-05-04 23:35 | 50.04816 | 8.61978 | 807 ft | 136 kts | 249° |
| 2026-05-04 23:35 | 50.04472 | 8.60625 | 655 ft | 134 kts | 250° |
| 2026-05-04 23:35 | 50.04150 | 8.59252 | 464 ft | 135 kts | 250° |
| 2026-05-04 23:35 | 50.03825 | 8.57898 | 358 ft | 129 kts | 249° |
| 2026-05-04 23:36 | 50.03581 | 8.56871 | 359 ft | 73 kts | 249° |
| 2026-05-04 23:36 | 50.03445 | 8.56288 | 359 ft | 37 kts | 256° |
| 2026-05-04 23:36 | 50.03444 | 8.55976 | 351 ft | 20 kts | 280° |
| 2026-05-04 23:36 | 50.03460 | 8.55834 | 355 ft | 0 kts | 280° |
| 2026-05-04 23:38 | 50.03460 | 8.55831 | 355 ft | 4 kts | 280° |
| 2026-05-04 23:38 | 50.03483 | 8.55636 | 352 ft | 20 kts | 277° |
| 2026-05-04 23:38 | 50.03481 | 8.55424 | 351 ft | 22 kts | 256° |
| 2026-05-04 23:39 | 50.03425 | 8.55187 | 354 ft | 23 kts | 249° |
| 2026-05-04 23:39 | 50.03361 | 8.54922 | 358 ft | 28 kts | 250° |
| 2026-05-04 23:39 | 50.03290 | 8.54630 | 359 ft | 33 kts | 249° |
| 2026-05-04 23:39 | 50.03209 | 8.54288 | 356 ft | 33 kts | 250° |
| 2026-05-04 23:40 | 50.03130 | 8.53958 | 357 ft | 32 kts | 249° |
| 2026-05-04 23:40 | 50.03069 | 8.53673 | 355 ft | 19 kts | 272° |
| 2026-05-04 23:40 | 50.03159 | 8.53561 | 359 ft | 18 kts | 337° |
| 2026-05-04 23:40 | 50.03275 | 8.53481 | 355 ft | 19 kts | 328° |
| 2026-05-04 23:41 | 50.03368 | 8.53342 | 357 ft | 18 kts | 330° |
| 2026-05-04 23:41 | 50.03492 | 8.53341 | 351 ft | 20 kts | 21° |
| 2026-05-04 23:41 | 50.03604 | 8.53455 | 357 ft | 19 kts | 53° |
| 2026-05-04 23:41 | 50.03664 | 8.53658 | 354 ft | 21 kts | 69° |
| 2026-05-04 23:42 | 50.03718 | 8.53875 | 357 ft | 22 kts | 69° |
| 2026-05-04 23:42 | 50.03771 | 8.54102 | 355 ft | 22 kts | 70° |
| 2026-05-04 23:42 | 50.03839 | 8.54321 | 356 ft | 23 kts | 56° |
| 2026-05-04 23:42 | 50.03906 | 8.54543 | 354 ft | 23 kts | 69° |
| 2026-05-04 23:43 | 50.03961 | 8.54777 | 355 ft | 23 kts | 70° |
| 2026-05-04 23:43 | 50.04019 | 8.55018 | 359 ft | 24 kts | 69° |
| 2026-05-04 23:43 | 50.04078 | 8.55261 | 357 ft | 24 kts | 69° |
| 2026-05-04 23:43 | 50.04137 | 8.55508 | 354 ft | 25 kts | 69° |
| 2026-05-04 23:44 | 50.04196 | 8.55758 | 353 ft | 25 kts | 70° |
| 2026-05-04 23:44 | 50.04249 | 8.55953 | 359 ft | 12 kts | 47° |
| 2026-05-04 23:44 | 50.04328 | 8.55939 | 353 ft | 15 kts | 342° |
| 2026-05-04 23:44 | 50.04431 | 8.55913 | 352 ft | 15 kts | 4° |
| 2026-05-04 23:45 | 50.04528 | 8.55958 | 356 ft | 13 kts | 27° |
| 2026-05-04 23:45 | 50.04579 | 8.56064 | 359 ft | 11 kts | 66° |
| 2026-05-04 23:45 | 50.04613 | 8.56170 | 359 ft | 11 kts | 44° |
| 2026-05-04 23:45 | 50.04671 | 8.56176 | 359 ft | 3 kts | 342° |
| 2026-05-04 23:46 | 50.04693 | 8.56163 | 358 ft | 4 kts | 340° |
| 2026-05-04 23:46 | 50.04704 | 8.56157 | 357 ft | 0 kts | 340° |